createdAt,value
2018-11-06T00:00:13.763Z,0
2018-11-06T00:01:15.307Z,0
2018-11-06T00:02:15.383Z,0
2018-11-06T00:03:16.459Z,0
2018-11-06T00:04:17.537Z,0
2018-11-06T00:05:18.338Z,0
2018-11-06T00:06:19.141Z,0
2018-11-06T00:07:19.942Z,0
2018-11-06T00:08:22.333Z,0
2018-11-06T00:09:24.481Z,0
2018-11-06T00:10:22.642Z,0
2018-11-06T00:11:23.892Z,0
2018-11-06T00:12:24.692Z,0
2018-11-06T00:13:25.773Z,0
2018-11-06T00:14:26.579Z,0
2018-11-06T00:15:28.380Z,0
2018-11-06T00:16:28.902Z,0
2018-11-06T00:17:30.814Z,0
2018-11-06T00:18:30.333Z,0
2018-11-06T00:19:31.133Z,0
2018-11-06T00:20:31.932Z,0
2018-11-06T00:21:32.768Z,0
2018-11-06T00:22:33.846Z,0
2018-11-06T00:23:35.213Z,0
2018-11-06T00:24:34.734Z,0
2018-11-06T00:25:35.533Z,0
2018-11-06T00:26:36.616Z,0
2018-11-06T00:27:36.413Z,0
2018-11-06T00:28:37.486Z,0
2018-11-06T00:29:38.562Z,0
2018-11-06T00:30:39.915Z,0
2018-11-06T00:31:40.889Z,0
2018-11-06T00:32:41.410Z,0
2018-11-06T00:33:42.209Z,0
2018-11-06T00:34:42.730Z,0
2018-11-06T00:35:43.808Z,0
2018-11-06T00:36:44.610Z,0
2018-11-06T00:37:46.246Z,0
2018-11-06T00:38:46.490Z,0
2018-11-06T00:39:48.842Z,0
2018-11-06T00:40:48.925Z,0
2018-11-06T00:41:48.925Z,0
2018-11-06T00:42:49.728Z,0
2018-11-06T00:43:50.532Z,0
2018-11-06T00:44:52.331Z,0
2018-11-06T00:45:53.404Z,0
2018-11-06T00:46:53.759Z,0
2018-11-06T00:47:54.669Z,0
2018-11-06T00:48:54.468Z,0
2018-11-06T00:49:55.275Z,0
2018-11-06T00:50:57.368Z,0
2018-11-06T00:51:56.631Z,0
2018-11-06T00:52:57.430Z,0
2018-11-06T00:53:58.508Z,0
2018-11-06T00:54:59.863Z,0
2018-11-06T00:55:59.945Z,0
2018-11-06T00:57:01.295Z,0
2018-11-06T00:58:02.654Z,0
2018-11-06T00:59:03.455Z,0
2018-11-06T01:00:03.981Z,0
2018-11-06T01:01:06.052Z,0
2018-11-06T01:02:07.162Z,0
2018-11-06T01:03:07.239Z,0
2018-11-06T01:04:08.318Z,0
2018-11-06T01:05:09.406Z,0
2018-11-06T01:06:09.482Z,0
2018-11-06T01:07:10.291Z,0
2018-11-06T01:08:11.779Z,0
2018-11-06T01:09:12.299Z,0
2018-11-06T01:10:12.821Z,0
2018-11-06T01:11:14.364Z,0
2018-11-06T01:12:14.368Z,0
2018-11-06T01:13:16.446Z,0
2018-11-06T01:14:16.518Z,0
2018-11-06T01:15:17.598Z,0
2018-11-06T01:16:18.673Z,0
2018-11-06T01:17:18.753Z,0
2018-11-06T01:18:19.554Z,0
2018-11-06T01:19:20.073Z,0
2018-11-06T01:20:21.438Z,0
2018-11-06T01:21:21.960Z,0
2018-11-06T01:22:23.490Z,0
2018-11-06T01:23:24.568Z,0
2018-11-06T01:24:25.090Z,0
2018-11-06T01:25:25.891Z,0
2018-11-06T01:26:27.251Z,0
2018-11-06T01:27:27.884Z,0
2018-11-06T01:28:27.405Z,0
2018-11-06T01:29:28.483Z,0
2018-11-06T01:30:29.557Z,0
2018-11-06T01:31:30.358Z,0
2018-11-06T01:32:31.641Z,0
2018-11-06T01:33:32.715Z,0
2018-11-06T01:34:33.236Z,0
2018-11-06T01:35:33.762Z,0
2018-11-06T01:36:35.117Z,0
2018-11-06T01:37:36.197Z,0
2018-11-06T01:38:37.270Z,0
2018-11-06T01:39:37.625Z,0
2018-11-06T01:40:38.258Z,0
2018-11-06T01:41:37.780Z,0
2018-11-06T01:42:38.755Z,0
2018-11-06T01:43:39.275Z,0
2018-11-06T01:44:40.078Z,0
2018-11-06T01:45:40.879Z,0
2018-11-06T01:46:41.411Z,0
2018-11-06T01:47:42.765Z,0
2018-11-06T01:48:42.285Z,0
2018-11-06T01:49:43.081Z,0
2018-11-06T01:50:44.162Z,0
2018-11-06T01:51:44.236Z,0
2018-11-06T01:52:45.601Z,0
2018-11-06T01:53:45.123Z,0
2018-11-06T01:54:45.643Z,0
2018-11-06T01:55:46.440Z,0
2018-11-06T01:56:47.238Z,0
2018-11-06T01:57:48.600Z,0
2018-11-06T01:58:49.688Z,0
2018-11-06T01:59:50.766Z,0
2018-11-06T02:00:51.562Z,0
2018-11-06T02:01:53.197Z,0
2018-11-06T02:02:53.891Z,0
2018-11-06T02:03:54.692Z,0
2018-11-06T02:04:54.933Z,0
2018-11-06T02:05:57.007Z,0
2018-11-06T02:06:57.529Z,0
2018-11-06T02:07:58.889Z,0
2018-11-06T02:08:59.243Z,0
2018-11-06T02:09:59.321Z,0
2018-11-06T02:10:58.841Z,0
2018-11-06T02:11:59.639Z,0
2018-11-06T02:13:00.055Z,0
2018-11-06T02:14:00.856Z,0
2018-11-06T02:15:02.214Z,0
2018-11-06T02:16:03.296Z,0
2018-11-06T02:17:03.541Z,0
2018-11-06T02:18:05.902Z,0
2018-11-06T02:19:06.150Z,0
2018-11-06T02:20:06.668Z,0
2018-11-06T02:21:09.020Z,0
2018-11-06T02:22:10.104Z,0
2018-11-06T02:23:10.356Z,0
2018-11-06T02:24:10.601Z,0
2018-11-06T02:25:12.401Z,0
2018-11-06T02:26:13.202Z,0
2018-11-06T02:27:13.737Z,0
2018-11-06T02:28:14.540Z,0
2018-11-06T02:29:15.611Z,0
2018-11-06T02:30:16.989Z,0
2018-11-06T02:31:17.347Z,0
2018-11-06T02:32:18.974Z,0
2018-11-06T02:33:19.877Z,0
2018-11-06T02:34:21.522Z,0
2018-11-06T02:35:22.877Z,0
2018-11-06T02:36:22.958Z,0
2018-11-06T02:37:24.048Z,0
2018-11-06T02:38:25.125Z,0
2018-11-06T02:39:25.929Z,0
2018-11-06T02:40:27.011Z,0
2018-11-06T02:41:28.645Z,0
2018-11-06T02:42:29.571Z,0
2018-11-06T02:43:29.405Z,0
2018-11-06T02:44:30.766Z,0
2018-11-06T02:45:30.844Z,0
2018-11-06T02:46:31.657Z,0
2018-11-06T02:47:32.733Z,0
2018-11-06T02:48:32.809Z,0
2018-11-06T02:49:33.897Z,0
2018-11-06T02:50:34.973Z,0
2018-11-06T02:51:35.609Z,0
2018-11-06T02:52:35.683Z,0
2018-11-06T02:53:37.238Z,0
2018-11-06T02:54:37.593Z,0
2018-11-06T02:55:39.122Z,0
2018-11-06T02:56:40.040Z,0
2018-11-06T02:57:40.413Z,0
2018-11-06T02:58:42.043Z,0
2018-11-06T02:59:42.676Z,0
2018-11-06T03:00:43.586Z,0
2018-11-06T03:01:43.944Z,0
2018-11-06T03:02:44.300Z,0
2018-11-06T03:03:44.827Z,0
2018-11-06T03:04:46.187Z,0
2018-11-06T03:05:47.127Z,0
2018-11-06T03:06:47.205Z,0
2018-11-06T03:07:48.004Z,0
2018-11-06T03:08:49.361Z,0
2018-11-06T03:09:50.272Z,0
2018-11-06T03:10:50.908Z,0
2018-11-06T03:11:50.994Z,0
2018-11-06T03:12:52.080Z,0
2018-11-06T03:13:53.224Z,0
2018-11-06T03:14:54.606Z,0
2018-11-06T03:15:55.408Z,0
2018-11-06T03:16:58.212Z,0
2018-11-06T03:17:57.943Z,0
2018-11-06T03:18:59.296Z,0
2018-11-06T03:20:00.110Z,0
2018-11-06T03:21:03.102Z,0
2018-11-06T03:22:03.735Z,0
2018-11-06T03:23:03.977Z,0
2018-11-06T03:24:05.540Z,0
2018-11-06T03:25:06.060Z,0
2018-11-06T03:26:06.857Z,0
2018-11-06T03:27:09.533Z,0
2018-11-06T03:28:08.991Z,0
2018-11-06T03:29:10.335Z,0
2018-11-06T03:30:11.576Z,0
2018-11-06T03:31:12.781Z,0
2018-11-06T03:32:13.975Z,0
2018-11-06T03:33:14.052Z,0
2018-11-06T03:34:15.145Z,0
2018-11-06T03:35:16.542Z,0
2018-11-06T03:36:17.622Z,0
2018-11-06T03:37:18.705Z,0
2018-11-06T03:38:19.510Z,0
2018-11-06T03:39:20.589Z,0
2018-11-06T03:40:21.683Z,0
2018-11-06T03:41:23.321Z,0
2018-11-06T03:42:23.955Z,0
2018-11-06T03:43:24.589Z,0
2018-11-06T03:44:24.947Z,0
2018-11-06T03:45:25.750Z,0
2018-11-06T03:46:26.268Z,0
2018-11-06T03:47:27.620Z,0
2018-11-06T03:48:28.701Z,0
2018-11-06T03:49:29.902Z,0
2018-11-06T03:50:30.252Z,0
2018-11-06T03:51:30.906Z,0
2018-11-06T03:52:32.258Z,0
2018-11-06T03:53:32.611Z,0
2018-11-06T03:54:33.143Z,0
2018-11-06T03:55:33.504Z,0
2018-11-06T03:56:34.862Z,0
2018-11-06T03:57:34.660Z,0
2018-11-06T03:58:36.014Z,0
2018-11-06T03:59:36.721Z,0
2018-11-06T04:00:37.800Z,0
2018-11-06T04:01:37.878Z,0
2018-11-06T04:02:39.237Z,0
2018-11-06T04:03:39.036Z,0
2018-11-06T04:04:40.286Z,0
2018-11-06T04:05:41.920Z,0
2018-11-06T04:06:41.447Z,0
2018-11-06T04:07:42.244Z,0
2018-11-06T04:08:43.605Z,0
2018-11-06T04:09:45.243Z,0
2018-11-06T04:10:46.325Z,0
2018-11-06T04:11:47.959Z,0
2018-11-06T04:12:47.766Z,0
2018-11-06T04:13:48.400Z,0
2018-11-06T04:14:50.093Z,0
2018-11-06T04:15:49.615Z,0
2018-11-06T04:16:50.979Z,0
2018-11-06T04:17:52.063Z,0
2018-11-06T04:18:52.165Z,0
2018-11-06T04:19:53.245Z,0
2018-11-06T04:20:54.049Z,0
2018-11-06T04:21:54.679Z,0
2018-11-06T04:22:55.756Z,0
2018-11-06T04:23:56.842Z,0
2018-11-06T04:24:57.678Z,0
2018-11-06T04:25:58.753Z,0
2018-11-06T04:26:59.560Z,0
2018-11-06T04:28:00.631Z,0
2018-11-06T04:29:01.432Z,0
2018-11-06T04:30:02.791Z,0
2018-11-06T04:31:03.154Z,0
2018-11-06T04:32:04.231Z,0
2018-11-06T04:33:03.755Z,0
2018-11-06T04:34:05.276Z,0
2018-11-06T04:35:06.086Z,0
2018-11-06T04:36:08.010Z,0
2018-11-06T04:37:08.090Z,0
2018-11-06T04:38:08.890Z,0
2018-11-06T04:39:09.689Z,0
2018-11-06T04:40:11.318Z,0
2018-11-06T04:41:11.406Z,0
2018-11-06T04:42:12.089Z,0
2018-11-06T04:43:11.889Z,0
2018-11-06T04:44:12.691Z,0
2018-11-06T04:45:13.778Z,0
2018-11-06T04:46:15.134Z,0
2018-11-06T04:47:16.492Z,0
2018-11-06T04:48:16.570Z,0
2018-11-06T04:49:18.843Z,0
2018-11-06T04:50:20.863Z,0
2018-11-06T04:51:19.107Z,0
2018-11-06T04:52:21.747Z,0
2018-11-06T04:53:22.413Z,0
2018-11-06T04:54:22.487Z,0
2018-11-06T04:55:24.020Z,0
2018-11-06T04:56:25.666Z,0
2018-11-06T04:57:25.738Z,0
2018-11-06T04:58:26.815Z,0
2018-11-06T04:59:27.335Z,0
2018-11-06T05:00:29.144Z,0
2018-11-06T05:01:30.503Z,0
2018-11-06T05:02:30.302Z,0
2018-11-06T05:03:31.385Z,0
2018-11-06T05:04:32.461Z,0
2018-11-06T05:05:33.553Z,0
2018-11-06T05:06:35.471Z,0
2018-11-06T05:07:34.990Z,0
2018-11-06T05:08:35.795Z,0
2018-11-06T05:09:36.318Z,0
2018-11-06T05:10:37.729Z,0
2018-11-06T05:11:37.525Z,0
2018-11-06T05:12:39.887Z,0
2018-11-06T05:13:39.972Z,0
2018-11-06T05:14:40.220Z,0
2018-11-06T05:15:41.089Z,0
2018-11-06T05:16:42.166Z,0
2018-11-06T05:17:41.963Z,0
2018-11-06T05:18:42.761Z,0
2018-11-06T05:19:43.007Z,0
2018-11-06T05:20:44.816Z,0
2018-11-06T05:21:44.618Z,0
2018-11-06T05:22:46.427Z,0
2018-11-06T05:23:46.662Z,0
2018-11-06T05:24:49.297Z,0
2018-11-06T05:25:49.629Z,0
2018-11-06T05:26:50.154Z,0
2018-11-06T05:27:51.239Z,0
2018-11-06T05:28:52.036Z,0
2018-11-06T05:29:53.126Z,0
2018-11-06T05:30:54.478Z,0
2018-11-06T05:31:53.998Z,0
2018-11-06T05:32:57.109Z,0
2018-11-06T05:33:57.465Z,0
2018-11-06T05:35:00.382Z,0
2018-11-06T05:36:11.465Z,0
2018-11-06T05:37:13.551Z,0
2018-11-06T05:38:13.627Z,0
2018-11-06T05:39:15.450Z,0
2018-11-06T05:40:15.667Z,0
2018-11-06T05:41:16.747Z,0
2018-11-06T05:42:17.266Z,0
2018-11-06T05:43:18.345Z,0
2018-11-06T05:44:19.150Z,0
2018-11-06T05:45:20.730Z,0
2018-11-06T05:46:20.532Z,0
2018-11-06T05:47:21.510Z,0
2018-11-06T05:48:22.046Z,0
2018-11-06T05:49:23.448Z,0
2018-11-06T05:50:24.252Z,0
2018-11-06T05:51:25.327Z,0
2018-11-06T05:52:26.126Z,0
2018-11-06T05:53:27.773Z,0
2018-11-06T05:54:27.852Z,5.63
2018-11-06T05:55:28.658Z,5.63
2018-11-06T05:56:29.455Z,5.63
2018-11-06T05:57:30.014Z,5.63
2018-11-06T05:58:30.261Z,5.63
2018-11-06T05:59:31.510Z,5.63
2018-11-06T06:00:35.182Z,5.63
2018-11-06T06:01:34.982Z,5.63
2018-11-06T06:02:35.508Z,11.25
2018-11-06T06:03:35.754Z,11.25
2018-11-06T06:04:37.556Z,11.25
2018-11-06T06:05:37.638Z,11.25
2018-11-06T06:06:37.882Z,11.25
2018-11-06T06:07:39.151Z,11.25
2018-11-06T06:08:39.679Z,11.25
2018-11-06T06:09:41.316Z,11.25
2018-11-06T06:10:42.395Z,16.88
2018-11-06T06:11:42.479Z,16.88
2018-11-06T06:12:43.556Z,16.88
2018-11-06T06:13:44.075Z,22.5
2018-11-06T06:14:45.157Z,22.5
2018-11-06T06:15:46.513Z,28.13
2018-11-06T06:16:49.088Z,28.13
2018-11-06T06:17:47.467Z,28.13
2018-11-06T06:18:47.712Z,33.75
2018-11-06T06:19:48.793Z,33.75
2018-11-06T06:20:49.872Z,39.38
2018-11-06T06:21:50.394Z,39.38
2018-11-06T06:22:51.480Z,39.38
2018-11-06T06:23:52.838Z,45
2018-11-06T06:24:53.361Z,45
2018-11-06T06:25:54.604Z,50.63
2018-11-06T06:26:56.409Z,50.63
2018-11-06T06:27:56.948Z,56.25
2018-11-06T06:28:59.030Z,56.25
2018-11-06T06:29:59.556Z,61.88
2018-11-06T06:31:00.637Z,61.88
2018-11-06T06:32:01.438Z,61.88
2018-11-06T06:33:03.076Z,67.5
2018-11-06T06:34:03.605Z,67.5
2018-11-06T06:35:05.310Z,73.13
2018-11-06T06:36:06.057Z,73.13
2018-11-06T06:37:06.864Z,95.63
2018-11-06T06:38:08.117Z,95.63
2018-11-06T06:39:08.642Z,90
2018-11-06T06:40:09.811Z,95.63
2018-11-06T06:41:11.119Z,95.63
2018-11-06T06:42:11.203Z,95.63
2018-11-06T06:43:12.295Z,95.63
2018-11-06T06:44:12.382Z,101.25
2018-11-06T06:45:13.190Z,101.25
2018-11-06T06:46:15.562Z,106.88
2018-11-06T06:47:14.937Z,106.88
2018-11-06T06:48:15.920Z,106.88
2018-11-06T06:49:17.003Z,112.5
2018-11-06T06:50:17.649Z,112.5
2018-11-06T06:51:19.280Z,112.5
2018-11-06T06:52:19.096Z,112.5
2018-11-06T06:53:19.181Z,118.13
2018-11-06T06:54:22.072Z,118.13
2018-11-06T06:55:22.502Z,123.75
2018-11-06T06:56:22.317Z,129.38
2018-11-06T06:57:24.677Z,135
2018-11-06T06:58:24.521Z,146.25
2018-11-06T06:59:25.878Z,157.5
2018-11-06T07:00:26.518Z,163.13
2018-11-06T07:01:26.884Z,163.13
2018-11-06T07:02:28.960Z,163.13
2018-11-06T07:03:28.193Z,146.25
2018-11-06T07:04:29.630Z,146.25
2018-11-06T07:05:30.567Z,151.88
2018-11-06T07:06:31.224Z,157.5
2018-11-06T07:07:32.040Z,174.38
2018-11-06T07:08:32.894Z,185.63
2018-11-06T07:09:32.549Z,174.38
2018-11-06T07:10:33.080Z,185.63
2018-11-06T07:11:34.457Z,247.5
2018-11-06T07:12:34.986Z,275.63
2018-11-06T07:13:36.066Z,281.25
2018-11-06T07:14:36.421Z,315
2018-11-06T07:15:36.955Z,331.88
2018-11-06T07:16:37.491Z,315
2018-11-06T07:17:38.016Z,309.38
2018-11-06T07:18:40.473Z,270
2018-11-06T07:19:39.903Z,258.75
2018-11-06T07:20:40.984Z,241.88
2018-11-06T07:21:41.796Z,286.88
2018-11-06T07:22:42.877Z,331.88
2018-11-06T07:23:43.963Z,427.5
2018-11-06T07:24:45.053Z,416.25
2018-11-06T07:25:45.133Z,371.25
2018-11-06T07:26:45.943Z,405
2018-11-06T07:27:47.307Z,641.25
2018-11-06T07:28:49.826Z,652.5
2018-11-06T07:29:49.049Z,573.75
2018-11-06T07:30:50.674Z,517.5
2018-11-06T07:31:50.764Z,624.38
2018-11-06T07:32:51.578Z,562.5
2018-11-06T07:33:52.387Z,568.13
2018-11-06T07:34:56.205Z,1282.5
2018-11-06T07:35:57.025Z,1400.63
2018-11-06T07:36:57.341Z,1468.13
2018-11-06T07:37:57.770Z,1125
2018-11-06T07:38:59.030Z,360
2018-11-06T07:39:58.562Z,292.5
2018-11-06T07:41:00.460Z,264.38
2018-11-06T07:42:00.644Z,258.75
2018-11-06T07:43:02.022Z,275.63
2018-11-06T07:44:02.835Z,258.75
2018-11-06T07:45:03.934Z,292.5
2018-11-06T07:46:04.187Z,213.75
2018-11-06T07:47:05.716Z,213.75
2018-11-06T07:48:06.803Z,213.75
2018-11-06T07:49:07.959Z,213.75
2018-11-06T07:50:09.842Z,219.38
2018-11-06T07:51:09.171Z,219.38
2018-11-06T07:52:09.982Z,247.5
2018-11-06T07:53:10.514Z,270
2018-11-06T07:54:11.598Z,331.88
2018-11-06T07:55:11.853Z,337.5
2018-11-06T07:56:15.274Z,320.63
2018-11-06T07:57:15.204Z,320.63
2018-11-06T07:58:15.742Z,365.63
2018-11-06T07:59:17.008Z,641.25
2018-11-06T08:00:18.377Z,871.88
2018-11-06T08:01:18.744Z,579.38
2018-11-06T08:02:19.551Z,326.25
2018-11-06T08:03:20.647Z,286.88
2018-11-06T08:04:22.941Z,326.25
2018-11-06T08:05:22.447Z,326.25
2018-11-06T08:06:24.152Z,326.25
2018-11-06T08:07:22.897Z,354.38
2018-11-06T08:08:24.035Z,399.38
2018-11-06T08:09:25.004Z,405
2018-11-06T08:10:25.732Z,393.75
2018-11-06T08:11:26.106Z,416.25
2018-11-06T08:12:26.636Z,438.75
2018-11-06T08:13:27.451Z,528.75
2018-11-06T08:14:28.075Z,489.38
2018-11-06T08:15:28.543Z,455.63
2018-11-06T08:16:30.193Z,461.25
2018-11-06T08:17:30.282Z,568.13
2018-11-06T08:18:31.371Z,669.38
2018-11-06T08:19:35.075Z,562.5
2018-11-06T08:20:34.058Z,556.88
2018-11-06T08:21:33.582Z,523.13
2018-11-06T08:22:34.392Z,517.5
2018-11-06T08:23:35.944Z,478.13
2018-11-06T08:24:36.196Z,421.88
2018-11-06T08:25:37.012Z,416.25
2018-11-06T08:26:38.374Z,433.13
2018-11-06T08:27:40.989Z,478.13
2018-11-06T08:28:40.187Z,438.75
2018-11-06T08:29:40.451Z,388.13
2018-11-06T08:30:44.333Z,365.63
2018-11-06T08:31:45.635Z,365.63
2018-11-06T08:32:48.013Z,360
2018-11-06T08:33:46.168Z,354.38
2018-11-06T08:34:48.308Z,360
2018-11-06T08:35:48.235Z,365.63
2018-11-06T08:36:50.108Z,365.63
2018-11-06T08:37:49.920Z,371.25
2018-11-06T08:38:51.285Z,376.88
2018-11-06T08:39:52.104Z,376.88
2018-11-06T08:40:52.467Z,382.5
2018-11-06T08:41:52.556Z,399.38
2018-11-06T08:42:53.647Z,388.13
2018-11-06T08:43:54.990Z,382.5
2018-11-06T08:44:55.755Z,376.88
2018-11-06T08:45:58.254Z,376.88
2018-11-06T08:46:57.926Z,371.25
2018-11-06T08:47:58.512Z,376.88
2018-11-06T08:49:01.287Z,376.88
2018-11-06T08:50:01.048Z,376.88
2018-11-06T08:51:00.078Z,399.38
2018-11-06T08:52:01.166Z,416.25
2018-11-06T08:53:01.255Z,433.13
2018-11-06T08:54:02.343Z,450
2018-11-06T08:55:03.156Z,466.88
2018-11-06T08:56:04.242Z,534.38
2018-11-06T08:57:04.772Z,562.5
2018-11-06T08:58:05.583Z,540
2018-11-06T08:59:06.113Z,601.88
2018-11-06T09:00:06.968Z,601.88
2018-11-06T09:01:07.503Z,624.38
2018-11-06T09:02:09.037Z,613.13
2018-11-06T09:03:09.294Z,697.5
2018-11-06T09:04:10.670Z,697.5
2018-11-06T09:05:11.758Z,630
2018-11-06T09:06:12.846Z,703.13
2018-11-06T09:07:13.666Z,950.63
2018-11-06T09:08:14.759Z,900
2018-11-06T09:09:15.568Z,945
2018-11-06T09:10:16.386Z,849.38
2018-11-06T09:11:17.479Z,1035
2018-11-06T09:12:18.578Z,1006.88
2018-11-06T09:13:19.672Z,928.13
2018-11-06T09:14:19.482Z,860.63
2018-11-06T09:15:20.013Z,821.25
2018-11-06T09:16:20.827Z,866.25
2018-11-06T09:17:21.636Z,922.5
2018-11-06T09:18:22.168Z,871.88
2018-11-06T09:19:23.423Z,894.38
2018-11-06T09:20:24.708Z,911.25
2018-11-06T09:21:25.520Z,860.63
2018-11-06T09:22:26.718Z,922.5
2018-11-06T09:23:26.252Z,911.25
2018-11-06T09:24:27.911Z,995.63
2018-11-06T09:25:28.003Z,1271.25
2018-11-06T09:26:28.812Z,1608.75
2018-11-06T09:27:29.900Z,1726.88
2018-11-06T09:28:30.434Z,1788.75
2018-11-06T09:29:31.522Z,1895.63
2018-11-06T09:30:32.302Z,1816.88
2018-11-06T09:31:33.675Z,1771.88
2018-11-06T09:32:33.926Z,2182.5
2018-11-06T09:33:35.741Z,2441.25
2018-11-06T09:34:36.833Z,2075.63
2018-11-06T09:35:37.645Z,2008.13
2018-11-06T09:36:38.735Z,2036.25
2018-11-06T09:37:39.550Z,2300.63
2018-11-06T09:38:42.307Z,2199.38
2018-11-06T09:39:42.095Z,1873.13
2018-11-06T09:40:42.396Z,1620
2018-11-06T09:41:43.768Z,1670.63
2018-11-06T09:42:43.581Z,1580.63
2018-11-06T09:43:44.396Z,1411.88
2018-11-06T09:44:45.212Z,1096.88
2018-11-06T09:45:46.305Z,866.25
2018-11-06T09:46:47.115Z,888.75
2018-11-06T09:47:47.931Z,1057.5
2018-11-06T09:48:50.874Z,1299.38
2018-11-06T09:49:49.415Z,1327.5
2018-11-06T09:50:50.540Z,1389.38
2018-11-06T09:51:51.397Z,1018.13
2018-11-06T09:52:52.070Z,860.63
2018-11-06T09:53:51.883Z,742.5
2018-11-06T09:54:53.250Z,691.88
2018-11-06T09:55:54.063Z,714.38
2018-11-06T09:56:55.167Z,725.63
2018-11-06T09:57:54.974Z,725.63
2018-11-06T09:58:57.064Z,787.5
2018-11-06T09:59:58.208Z,916.88
2018-11-06T10:00:58.511Z,984.38
2018-11-06T10:01:59.087Z,1203.75
2018-11-06T10:02:59.904Z,1631.25
2018-11-06T10:04:01.032Z,2036.25
2018-11-06T10:05:02.118Z,1991.25
2018-11-06T10:06:03.881Z,1980
2018-11-06T10:07:09.515Z,1935
2018-11-06T10:07:16.977Z,1991.25
2018-11-06T10:08:16.036Z,2148.75
2018-11-06T10:09:18.777Z,2677.5
2018-11-06T10:10:18.549Z,2795.63
2018-11-06T10:11:19.733Z,2520
2018-11-06T10:12:19.987Z,2863.13
2018-11-06T10:13:21.081Z,3093.75
2018-11-06T10:14:22.464Z,3234.38
2018-11-06T10:15:22.567Z,3211.88
2018-11-06T10:16:23.662Z,2615.63
2018-11-06T10:17:24.207Z,3948.75
2018-11-06T10:18:25.755Z,3881.25
2018-11-06T10:19:26.576Z,2863.13
2018-11-06T10:20:27.946Z,3616.88
2018-11-06T10:21:28.633Z,3780
2018-11-06T10:22:29.176Z,3875.63
2018-11-06T10:23:31.112Z,3262.5
2018-11-06T10:24:30.388Z,3346.88
2018-11-06T10:25:31.482Z,3673.13
2018-11-06T10:26:32.210Z,3285
2018-11-06T10:27:33.457Z,1935
2018-11-06T10:28:34.573Z,2722.5
2018-11-06T10:29:35.120Z,3459.38
2018-11-06T10:30:36.842Z,3442.5
2018-11-06T10:31:36.915Z,3746.25
2018-11-06T10:32:37.017Z,3937.5
2018-11-06T10:33:41.911Z,3780
2018-11-06T10:34:40.205Z,3858.75
2018-11-06T10:35:40.860Z,3926.25
2018-11-06T10:36:40.680Z,3825
2018-11-06T10:37:42.498Z,3076.88
2018-11-06T10:38:43.087Z,3796.88
2018-11-06T10:39:43.989Z,3915
2018-11-06T10:40:44.534Z,2070
2018-11-06T10:41:45.077Z,2823.75
2018-11-06T10:42:46.451Z,3403.13
2018-11-06T10:43:48.893Z,3161.25
2018-11-06T10:44:47.834Z,3150
2018-11-06T10:45:48.100Z,3470.63
2018-11-06T10:46:49.196Z,3521.25
2018-11-06T10:47:49.740Z,3476.25
2018-11-06T10:48:50.890Z,3391.88
2018-11-06T10:49:52.584Z,2970
2018-11-06T10:50:52.679Z,3206.25
2018-11-06T10:51:53.598Z,3729.38
2018-11-06T10:52:53.849Z,3493.13
2018-11-06T10:53:55.169Z,2902.5
2018-11-06T10:54:56.664Z,3138.75
2018-11-06T10:55:57.255Z,3307.5
2018-11-06T10:56:58.616Z,3015
2018-11-06T10:58:00.263Z,2705.63
2018-11-06T10:59:02.101Z,2981.25
2018-11-06T11:00:01.618Z,3318.75
2018-11-06T11:01:01.720Z,3459.38
2018-11-06T11:02:07.761Z,3245.63
2018-11-06T11:02:20.703Z,3211.88
2018-11-06T11:02:32.494Z,3195
2018-11-06T11:02:42.718Z,3172.5
2018-11-06T11:03:43.027Z,2272.5
2018-11-06T11:03:55.693Z,2070
2018-11-06T11:04:11.975Z,2002.5
2018-11-06T11:04:22.992Z,2008.13
2018-11-06T11:05:22.095Z,2823.75
2018-11-06T11:06:21.759Z,3324.38
2018-11-06T11:07:24.381Z,3262.5
2018-11-06T11:08:25.466Z,3318.75
2018-11-06T11:09:26.172Z,3172.5
2018-11-06T11:10:27.076Z,2835
2018-11-06T11:11:27.822Z,1355.63
2018-11-06T11:12:30.490Z,1243.13
2018-11-06T11:13:33.443Z,1991.25
2018-11-06T11:14:33.138Z,1608.75
2018-11-06T11:15:31.892Z,1406.25
2018-11-06T11:16:32.152Z,1355.63
2018-11-06T11:17:34.923Z,1513.13
2018-11-06T11:18:34.255Z,1805.63
2018-11-06T11:19:37.622Z,849.38
2018-11-06T11:20:37.431Z,798.75
2018-11-06T11:21:38.208Z,1231.88
2018-11-06T11:22:44.010Z,1783.13
2018-11-06T11:23:40.256Z,1305
2018-11-06T11:24:42.349Z,1215
2018-11-06T11:25:46.549Z,1029.38
2018-11-06T11:26:44.669Z,939.38
2018-11-06T11:27:45.483Z,928.13
2018-11-06T11:28:48.022Z,1158.75
2018-11-06T11:29:48.348Z,1951.88
2018-11-06T11:30:49.549Z,2480.63
2018-11-06T11:31:51.405Z,2536.88
2018-11-06T11:32:51.602Z,2379.38
2018-11-06T11:33:52.569Z,2615.63
2018-11-06T11:34:52.398Z,2548.13
2018-11-06T11:35:53.472Z,2317.5
2018-11-06T11:36:53.290Z,2182.5
2018-11-06T11:37:55.765Z,2098.13
2018-11-06T11:38:59.957Z,1794.38
2018-11-06T11:40:11.745Z,1794.38
2018-11-06T11:41:10.068Z,1485
2018-11-06T11:42:11.385Z,1642.5
2018-11-06T11:43:12.479Z,2311.88
2018-11-06T11:44:13.056Z,2340
2018-11-06T11:45:14.982Z,2171.25
2018-11-06T11:46:15.358Z,2120.63
2018-11-06T11:47:15.745Z,2458.13
2018-11-06T11:48:17.117Z,2902.5
2018-11-06T11:49:16.661Z,2806.88
2018-11-06T11:50:17.491Z,2328.75
2018-11-06T11:51:19.123Z,1738.13
2018-11-06T11:52:19.217Z,1265.63
2018-11-06T11:53:19.755Z,1153.13
2018-11-06T11:54:20.575Z,1198.13
2018-11-06T11:55:21.110Z,866.25
2018-11-06T11:56:22.494Z,849.38
2018-11-06T11:57:23.300Z,849.38
2018-11-06T11:58:25.884Z,939.38
2018-11-06T11:59:25.449Z,787.5
2018-11-06T12:00:26.818Z,1080
2018-11-06T12:01:27.372Z,939.38
2018-11-06T12:02:28.307Z,1029.38
2018-11-06T12:03:31.652Z,939.38
2018-11-06T12:04:30.371Z,855
2018-11-06T12:05:31.787Z,725.63
2018-11-06T12:06:31.736Z,849.38
2018-11-06T12:07:33.100Z,691.88
2018-11-06T12:08:33.470Z,697.5
2018-11-06T12:09:38.243Z,742.5
2018-11-06T12:10:35.627Z,720
2018-11-06T12:11:36.726Z,573.75
2018-11-06T12:12:37.487Z,607.5
2018-11-06T12:13:37.620Z,708.75
2018-11-06T12:14:38.439Z,585
2018-11-06T12:15:38.978Z,444.38
2018-11-06T12:16:39.795Z,534.38
2018-11-06T12:17:41.946Z,590.63
2018-11-06T12:18:42.475Z,466.88
2018-11-06T12:19:43.843Z,472.5
2018-11-06T12:20:45.500Z,748.13
2018-11-06T12:21:45.494Z,832.5
2018-11-06T12:22:45.752Z,669.38
2018-11-06T12:23:46.566Z,826.88
2018-11-06T12:24:49.099Z,720
2018-11-06T12:25:48.676Z,618.75
2018-11-06T12:26:47.795Z,663.75
2018-11-06T12:27:48.889Z,579.38
2018-11-06T12:28:50.267Z,444.38
2018-11-06T12:29:50.632Z,478.13
2018-11-06T12:30:50.892Z,551.25
2018-11-06T12:31:53.554Z,579.38
2018-11-06T12:32:53.649Z,658.13
2018-11-06T12:33:55.291Z,720
2018-11-06T12:34:54.827Z,669.38
2018-11-06T12:35:56.208Z,680.63
2018-11-06T12:36:56.913Z,630
2018-11-06T12:37:57.398Z,590.63
2018-11-06T12:38:58.771Z,455.63
2018-11-06T12:39:58.880Z,500.63
2018-11-06T12:40:59.414Z,466.88
2018-11-06T12:42:00.404Z,399.38
2018-11-06T12:43:01.671Z,360
2018-11-06T12:44:02.467Z,371.25
2018-11-06T12:45:03.292Z,427.5
2018-11-06T12:46:04.384Z,382.5
2018-11-06T12:47:04.642Z,354.38
2018-11-06T12:48:05.464Z,331.88
2018-11-06T12:49:06.556Z,326.25
2018-11-06T12:50:12.586Z,326.25
2018-11-06T12:50:23.680Z,315
2018-11-06T12:51:19.985Z,298.13
2018-11-06T12:52:21.089Z,315
2018-11-06T12:53:22.564Z,309.38
2018-11-06T12:54:36.141Z,365.63
2018-11-06T12:55:36.641Z,388.13
2018-11-06T12:56:41.488Z,365.63
2018-11-06T12:56:52.481Z,354.38
2018-11-06T12:57:04.418Z,348.75
2018-11-06T12:57:15.433Z,337.5
2018-11-06T12:58:18.119Z,292.5
2018-11-06T12:58:31.193Z,292.5
2018-11-06T12:58:42.009Z,286.88
2018-11-06T12:58:53.922Z,286.88
2018-11-06T12:59:06.879Z,281.25
2018-11-06T12:59:17.227Z,281.25
2018-11-06T13:00:14.406Z,281.25
2018-11-06T13:01:15.428Z,281.25
2018-11-06T13:02:16.526Z,298.13
2018-11-06T13:03:18.247Z,298.13
2018-11-06T13:04:17.779Z,354.38
2018-11-06T13:05:33.681Z,298.13
2018-11-06T13:06:36.043Z,292.5
2018-11-06T13:07:34.274Z,303.75
2018-11-06T13:08:35.369Z,298.13
2018-11-06T13:09:36.020Z,298.13
2018-11-06T13:10:37.666Z,320.63
2018-11-06T13:11:37.755Z,331.88
2018-11-06T13:12:38.564Z,320.63
2018-11-06T13:13:38.842Z,331.88
2018-11-06T13:14:40.530Z,315
2018-11-06T13:15:41.752Z,275.63
2018-11-06T13:16:40.638Z,281.25
2018-11-06T13:17:42.443Z,281.25
2018-11-06T13:18:42.978Z,275.63
2018-11-06T13:19:43.513Z,270
2018-11-06T13:20:44.599Z,292.5
2018-11-06T13:21:45.409Z,292.5
2018-11-06T13:22:46.555Z,275.63
2018-11-06T13:23:47.096Z,309.38
2018-11-06T13:24:47.630Z,292.5
2018-11-06T13:25:49.457Z,258.75
2018-11-06T13:26:50.135Z,258.75